sensor_id;sensor_type;location;lat;lon;timestamp;pressure;altitude;pressure_sealevel;temperature;humidity
6132;BME280;3097;42.692;23.278;2023-11-19T00:00:07;95006.06;;;4.36;81.08
6132;BME280;3097;42.692;23.278;2023-11-19T00:02:38;94977.38;;;4.13;82.10
6132;BME280;3097;42.692;23.278;2023-11-19T00:05:03;94996.91;;;4.42;81.25
6132;BME280;3097;42.692;23.278;2023-11-19T00:07:29;95003.06;;;4.47;80.92
6132;BME280;3097;42.692;23.278;2023-11-19T00:09:54;94997.41;;;4.52;80.26
6132;BME280;3097;42.692;23.278;2023-11-19T00:12:20;94990.00;;;4.57;79.71
6132;BME280;3097;42.692;23.278;2023-11-19T00:14:46;94995.69;;;4.59;80.13
6132;BME280;3097;42.692;23.278;2023-11-19T00:17:11;94997.34;;;4.66;80.19
6132;BME280;3097;42.692;23.278;2023-11-19T00:19:37;94958.13;;;4.32;79.97
6132;BME280;3097;42.692;23.278;2023-11-19T00:22:02;94996.50;;;4.59;80.10
6132;BME280;3097;42.692;23.278;2023-11-19T00:24:29;95006.81;;;4.66;79.10
6132;BME280;3097;42.692;23.278;2023-11-19T00:26:56;95006.81;;;4.66;80.11
6132;BME280;3097;42.692;23.278;2023-11-19T00:29:21;95003.69;;;4.71;79.05
6132;BME280;3097;42.692;23.278;2023-11-19T00:31:47;94994.16;;;4.58;79.45
6132;BME280;3097;42.692;23.278;2023-11-19T00:34:13;94986.88;;;4.40;79.71
6132;BME280;3097;42.692;23.278;2023-11-19T00:36:39;95008.25;;;4.39;80.57
6132;BME280;3097;42.692;23.278;2023-11-19T00:39:04;95012.66;;;4.45;81.20
6132;BME280;3097;42.692;23.278;2023-11-19T00:41:31;95011.16;;;4.51;80.79
6132;BME280;3097;42.692;23.278;2023-11-19T00:43:56;95022.47;;;4.63;80.24
6132;BME280;3097;42.692;23.278;2023-11-19T00:46:22;95015.78;;;4.62;79.93
6132;BME280;3097;42.692;23.278;2023-11-19T00:48:47;95014.06;;;4.48;80.19
6132;BME280;3097;42.692;23.278;2023-11-19T00:51:12;94982.69;;;4.33;80.53
6132;BME280;3097;42.692;23.278;2023-11-19T00:53:38;95014.75;;;4.56;80.24
6132;BME280;3097;42.692;23.278;2023-11-19T00:56:04;95016.53;;;4.41;80.41
6132;BME280;3097;42.692;23.278;2023-11-19T00:58:29;95001.19;;;4.20;80.54
6132;BME280;3097;42.692;23.278;2023-11-19T01:00:55;95019.38;;;4.32;81.21
6132;BME280;3097;42.692;23.278;2023-11-19T01:03:22;95005.13;;;4.22;81.63
6132;BME280;3097;42.692;23.278;2023-11-19T01:05:48;95011.09;;;4.29;81.31
6132;BME280;3097;42.692;23.278;2023-11-19T01:08:13;95004.31;;;4.37;81.36
6132;BME280;3097;42.692;23.278;2023-11-19T01:10:39;95015.75;;;4.41;80.96
6132;BME280;3097;42.692;23.278;2023-11-19T01:13:05;95002.06;;;4.27;80.42
6132;BME280;3097;42.692;23.278;2023-11-19T01:15:33;95010.31;;;4.29;80.63
6132;BME280;3097;42.692;23.278;2023-11-19T01:17:59;94998.72;;;4.26;81.22
6132;BME280;3097;42.692;23.278;2023-11-19T01:20:25;95011.59;;;4.40;80.61
6132;BME280;3097;42.692;23.278;2023-11-19T01:22:51;94972.50;;;4.18;80.66
6132;BME280;3097;42.692;23.278;2023-11-19T01:25:17;95004.41;;;4.28;80.05
6132;BME280;3097;42.692;23.278;2023-11-19T01:27:42;95017.00;;;4.15;81.24
6132;BME280;3097;42.692;23.278;2023-11-19T01:30:09;95011.72;;;4.17;81.17
6132;BME280;3097;42.692;23.278;2023-11-19T01:32:38;95016.03;;;4.16;81.15
6132;BME280;3097;42.692;23.278;2023-11-19T01:35:04;95010.44;;;4.21;80.50
6132;BME280;3097;42.692;23.278;2023-11-19T01:37:29;95022.97;;;4.22;79.95
6132;BME280;3097;42.692;23.278;2023-11-19T01:39:56;94989.75;;;4.01;80.20
6132;BME280;3097;42.692;23.278;2023-11-19T01:42:22;95036.38;;;4.10;80.01
6132;BME280;3097;42.692;23.278;2023-11-19T01:44:59;95021.63;;;4.05;80.28
6132;BME280;3097;42.692;23.278;2023-11-19T01:47:27;94994.16;;;3.78;80.44
6132;BME280;3097;42.692;23.278;2023-11-19T01:49:53;95035.84;;;4.00;80.82
6132;BME280;3097;42.692;23.278;2023-11-19T01:52:20;95039.81;;;4.02;80.01
6132;BME280;3097;42.692;23.278;2023-11-19T01:54:45;95052.56;;;4.02;80.59
6132;BME280;3097;42.692;23.278;2023-11-19T01:57:13;95060.66;;;4.06;79.33
6132;BME280;3097;42.692;23.278;2023-11-19T01:59:39;95057.22;;;4.13;80.08
6132;BME280;3097;42.692;23.278;2023-11-19T02:02:05;95057.03;;;4.15;79.24
6132;BME280;3097;42.692;23.278;2023-11-19T02:04:31;95048.88;;;4.19;79.62
6132;BME280;3097;42.692;23.278;2023-11-19T02:06:58;95046.38;;;4.26;79.54
6132;BME280;3097;42.692;23.278;2023-11-19T02:09:24;95020.34;;;4.31;78.47
6132;BME280;3097;42.692;23.278;2023-11-19T02:11:50;95040.88;;;4.44;78.13
6132;BME280;3097;42.692;23.278;2023-11-19T02:14:24;95005.84;;;4.16;77.86
6132;BME280;3097;42.692;23.278;2023-11-19T02:16:51;95036.97;;;4.26;77.98
6132;BME280;3097;42.692;23.278;2023-11-19T02:19:20;95018.78;;;3.85;79.50
6132;BME280;3097;42.692;23.278;2023-11-19T02:21:46;95030.72;;;4.14;78.96
6132;BME280;3097;42.692;23.278;2023-11-19T02:24:12;95028.47;;;4.19;79.57
6132;BME280;3097;42.692;23.278;2023-11-19T02:26:49;95026.84;;;4.33;78.60
6132;BME280;3097;42.692;23.278;2023-11-19T02:29:17;95022.28;;;4.14;79.50
6132;BME280;3097;42.692;23.278;2023-11-19T02:31:42;95022.09;;;4.30;78.89
6132;BME280;3097;42.692;23.278;2023-11-19T02:34:10;95012.06;;;4.28;78.50
6132;BME280;3097;42.692;23.278;2023-11-19T02:36:37;95014.59;;;4.28;78.52
6132;BME280;3097;42.692;23.278;2023-11-19T02:39:03;95005.66;;;4.33;77.96
6132;BME280;3097;42.692;23.278;2023-11-19T02:41:28;95022.06;;;4.45;77.57
6132;BME280;3097;42.692;23.278;2023-11-19T02:43:54;95020.75;;;4.49;77.88
6132;BME280;3097;42.692;23.278;2023-11-19T02:46:20;95009.22;;;4.38;77.42
6132;BME280;3097;42.692;23.278;2023-11-19T02:48:45;95021.91;;;4.32;78.12
6132;BME280;3097;42.692;23.278;2023-11-19T02:51:11;95036.44;;;4.16;78.60
6132;BME280;3097;42.692;23.278;2023-11-19T02:53:37;94905.94;;;3.62;77.63
6132;BME280;3097;42.692;23.278;2023-11-19T02:56:05;94982.19;;;4.08;77.79
6132;BME280;3097;42.692;23.278;2023-11-19T02:58:44;95015.84;;;4.33;78.18
6132;BME280;3097;42.692;23.278;2023-11-19T03:01:11;95020.34;;;4.31;77.66
6132;BME280;3097;42.692;23.278;2023-11-19T03:03:49;95026.50;;;4.21;78.46
6132;BME280;3097;42.692;23.278;2023-11-19T03:06:19;95030.81;;;4.36;77.68
6132;BME280;3097;42.692;23.278;2023-11-19T03:08:46;95025.91;;;4.19;77.69
6132;BME280;3097;42.692;23.278;2023-11-19T03:11:11;95041.22;;;4.19;78.06
6132;BME280;3097;42.692;23.278;2023-11-19T03:13:36;95040.50;;;4.11;78.02
6132;BME280;3097;42.692;23.278;2023-11-19T03:16:02;95046.56;;;4.10;78.71
6132;BME280;3097;42.692;23.278;2023-11-19T03:18:27;95044.34;;;4.21;78.71
6132;BME280;3097;42.692;23.278;2023-11-19T03:20:53;95042.78;;;4.20;78.37
6132;BME280;3097;42.692;23.278;2023-11-19T03:23:19;95049.91;;;4.25;78.47
6132;BME280;3097;42.692;23.278;2023-11-19T03:25:44;95044.72;;;4.18;78.27
6132;BME280;3097;42.692;23.278;2023-11-19T03:28:10;95038.94;;;4.10;78.95
6132;BME280;3097;42.692;23.278;2023-11-19T03:30:36;95014.41;;;3.94;78.85
6132;BME280;3097;42.692;23.278;2023-11-19T03:33:01;95041.03;;;4.06;78.93
6132;BME280;3097;42.692;23.278;2023-11-19T03:35:27;95041.91;;;3.99;79.43
6132;BME280;3097;42.692;23.278;2023-11-19T03:37:53;95045.00;;;3.94;78.76
6132;BME280;3097;42.692;23.278;2023-11-19T03:40:19;95050.53;;;3.83;79.17
6132;BME280;3097;42.692;23.278;2023-11-19T03:42:48;95041.81;;;3.63;79.71
6132;BME280;3097;42.692;23.278;2023-11-19T03:45:13;95056.41;;;3.69;80.34
6132;BME280;3097;42.692;23.278;2023-11-19T03:47:41;95071.09;;;3.67;80.65
6132;BME280;3097;42.692;23.278;2023-11-19T03:50:07;95076.91;;;3.75;80.36
6132;BME280;3097;42.692;23.278;2023-11-19T03:52:35;95072.88;;;3.81;80.38
6132;BME280;3097;42.692;23.278;2023-11-19T03:55:01;95081.13;;;3.83;79.77
6132;BME280;3097;42.692;23.278;2023-11-19T03:57:28;95079.63;;;3.74;80.71
6132;BME280;3097;42.692;23.278;2023-11-19T03:59:53;95083.59;;;3.91;80.09
6132;BME280;3097;42.692;23.278;2023-11-19T04:02:20;95072.88;;;3.81;79.65
6132;BME280;3097;42.692;23.278;2023-11-19T04:04:46;95088.78;;;3.83;80.19
6132;BME280;3097;42.692;23.278;2023-11-19T04:07:12;95088.09;;;3.89;80.32
6132;BME280;3097;42.692;23.278;2023-11-19T04:09:37;95100.22;;;4.02;79.29
6132;BME280;3097;42.692;23.278;2023-11-19T04:12:03;95098.53;;;3.79;80.13
6132;BME280;3097;42.692;23.278;2023-11-19T04:14:29;95110.44;;;4.02;79.96
6132;BME280;3097;42.692;23.278;2023-11-19T04:16:54;95112.97;;;4.16;79.53
6132;BME280;3097;42.692;23.278;2023-11-19T04:19:20;95108.94;;;4.22;79.04
6132;BME280;3097;42.692;23.278;2023-11-19T04:21:46;95118.53;;;4.20;78.50
6132;BME280;3097;42.692;23.278;2023-11-19T04:24:12;95108.75;;;4.23;78.28
6132;BME280;3097;42.692;23.278;2023-11-19T04:26:45;95107.09;;;4.16;78.47
6132;BME280;3097;42.692;23.278;2023-11-19T04:29:15;95104.53;;;4.16;79.18
6132;BME280;3097;42.692;23.278;2023-11-19T04:31:43;95110.97;;;4.26;78.62
6132;BME280;3097;42.692;23.278;2023-11-19T04:34:09;95111.84;;;4.34;77.82
6132;BME280;3097;42.692;23.278;2023-11-19T04:36:36;95102.78;;;4.31;78.64
6132;BME280;3097;42.692;23.278;2023-11-19T04:39:03;95078.50;;;4.20;78.37
6132;BME280;3097;42.692;23.278;2023-11-19T04:41:35;95111.38;;;4.45;76.87
6132;BME280;3097;42.692;23.278;2023-11-19T04:44:01;95112.88;;;4.39;77.71
6132;BME280;3097;42.692;23.278;2023-11-19T04:46:27;95102.94;;;4.29;77.14
6132;BME280;3097;42.692;23.278;2023-11-19T04:48:52;95088.97;;;3.96;78.04
6132;BME280;3097;42.692;23.278;2023-11-19T04:51:18;95047.13;;;3.76;77.88
6132;BME280;3097;42.692;23.278;2023-11-19T04:53:43;95098.91;;;4.20;78.21
6132;BME280;3097;42.692;23.278;2023-11-19T04:56:12;95081.50;;;4.09;78.04
6132;BME280;3097;42.692;23.278;2023-11-19T04:58:38;95102.44;;;4.19;78.49
6132;BME280;3097;42.692;23.278;2023-11-19T05:01:04;95102.69;;;4.24;78.37
6132;BME280;3097;42.692;23.278;2023-11-19T05:03:31;95019.94;;;3.83;77.39
6132;BME280;3097;42.692;23.278;2023-11-19T05:05:57;95127.56;;;4.52;76.77
6132;BME280;3097;42.692;23.278;2023-11-19T05:08:22;95135.69;;;4.55;76.18
6132;BME280;3097;42.692;23.278;2023-11-19T05:10:48;95140.53;;;4.50;76.59
6132;BME280;3097;42.692;23.278;2023-11-19T05:13:13;95143.16;;;4.57;76.21
6132;BME280;3097;42.692;23.278;2023-11-19T05:15:40;95125.91;;;4.44;76.51
6132;BME280;3097;42.692;23.278;2023-11-19T05:18:06;95131.72;;;4.38;76.51
6132;BME280;3097;42.692;23.278;2023-11-19T05:20:32;95122.94;;;4.11;77.86
6132;BME280;3097;42.692;23.278;2023-11-19T05:22:58;95140.25;;;4.31;77.41
6132;BME280;3097;42.692;23.278;2023-11-19T05:25:25;95123.97;;;4.32;77.58
6132;BME280;3097;42.692;23.278;2023-11-19T05:27:52;95131.28;;;4.20;77.75
6132;BME280;3097;42.692;23.278;2023-11-19T05:30:17;95126.53;;;4.32;77.33
6132;BME280;3097;42.692;23.278;2023-11-19T05:32:43;95136.81;;;4.23;77.87
6132;BME280;3097;42.692;23.278;2023-11-19T05:35:08;95138.06;;;4.42;77.08
6132;BME280;3097;42.692;23.278;2023-11-19T05:37:34;95139.75;;;4.20;77.41
6132;BME280;3097;42.692;23.278;2023-11-19T05:40:00;95139.53;;;4.37;77.62
6132;BME280;3097;42.692;23.278;2023-11-19T05:42:28;95148.38;;;4.49;76.83
6132;BME280;3097;42.692;23.278;2023-11-19T05:44:53;95144.38;;;4.46;76.75
6132;BME280;3097;42.692;23.278;2023-11-19T05:47:19;95154.53;;;4.40;76.86
6132;BME280;3097;42.692;23.278;2023-11-19T05:49:44;95158.13;;;4.45;77.06
6132;BME280;3097;42.692;23.278;2023-11-19T05:52:10;95160.16;;;4.35;76.22
6132;BME280;3097;42.692;23.278;2023-11-19T05:54:37;95149.59;;;4.23;77.22
6132;BME280;3097;42.692;23.278;2023-11-19T05:57:06;95159.06;;;4.15;77.54
6132;BME280;3097;42.692;23.278;2023-11-19T05:59:35;95161.19;;;4.11;77.41
6132;BME280;3097;42.692;23.278;2023-11-19T06:02:01;95127.13;;;3.89;77.98
6132;BME280;3097;42.692;23.278;2023-11-19T06:04:27;95165.59;;;4.17;78.20
6132;BME280;3097;42.692;23.278;2023-11-19T06:06:53;95170.34;;;4.20;77.89
6132;BME280;3097;42.692;23.278;2023-11-19T06:09:20;95163.56;;;3.98;77.54
6132;BME280;3097;42.692;23.278;2023-11-19T06:11:48;95177.38;;;4.18;78.01
6132;BME280;3097;42.692;23.278;2023-11-19T06:14:14;95175.78;;;4.17;77.87
6132;BME280;3097;42.692;23.278;2023-11-19T06:16:39;95148.59;;;4.10;77.84
6132;BME280;3097;42.692;23.278;2023-11-19T06:19:05;95166.81;;;4.21;77.93
6132;BME280;3097;42.692;23.278;2023-11-19T06:21:30;95160.25;;;4.27;78.36
6132;BME280;3097;42.692;23.278;2023-11-19T06:23:56;95165.59;;;4.17;78.66
6132;BME280;3097;42.692;23.278;2023-11-19T06:26:21;95164.97;;;4.30;77.14
6132;BME280;3097;42.692;23.278;2023-11-19T06:28:47;95183.38;;;4.40;77.67
6132;BME280;3097;42.692;23.278;2023-11-19T06:31:13;95189.91;;;4.43;77.34
6132;BME280;3097;42.692;23.278;2023-11-19T06:33:41;95180.03;;;4.40;76.94
6132;BME280;3097;42.692;23.278;2023-11-19T06:36:08;95171.75;;;4.23;76.82
6132;BME280;3097;42.692;23.278;2023-11-19T06:38:34;95194.84;;;4.07;77.24
6132;BME280;3097;42.692;23.278;2023-11-19T06:41:00;95185.44;;;4.07;78.09
6132;BME280;3097;42.692;23.278;2023-11-19T06:43:26;95182.63;;;4.02;78.12
6132;BME280;3097;42.692;23.278;2023-11-19T06:45:53;95181.88;;;4.16;78.17
6132;BME280;3097;42.692;23.278;2023-11-19T06:48:19;95188.22;;;4.20;77.28
6132;BME280;3097;42.692;23.278;2023-11-19T06:50:45;95184.06;;;4.05;77.48
6132;BME280;3097;42.692;23.278;2023-11-19T06:53:10;95182.78;;;4.01;77.39
6132;BME280;3097;42.692;23.278;2023-11-19T06:55:36;95166.34;;;3.88;77.64
6132;BME280;3097;42.692;23.278;2023-11-19T06:58:01;95174.94;;;3.87;78.08
6132;BME280;3097;42.692;23.278;2023-11-19T07:00:28;95196.38;;;3.78;78.13
6132;BME280;3097;42.692;23.278;2023-11-19T07:02:54;95192.97;;;3.86;76.99
6132;BME280;3097;42.692;23.278;2023-11-19T07:05:20;95157.88;;;3.50;77.16
6132;BME280;3097;42.692;23.278;2023-11-19T07:07:46;95138.13;;;3.30;78.34
6132;BME280;3097;42.692;23.278;2023-11-19T07:10:12;95201.84;;;3.53;78.44
6132;BME280;3097;42.692;23.278;2023-11-19T07:12:38;95202.28;;;3.56;78.92
6132;BME280;3097;42.692;23.278;2023-11-19T07:15:07;95161.59;;;3.40;78.09
6132;BME280;3097;42.692;23.278;2023-11-19T07:17:34;95192.44;;;3.53;78.27
6132;BME280;3097;42.692;23.278;2023-11-19T07:20:00;95194.19;;;3.53;79.24
6132;BME280;3097;42.692;23.278;2023-11-19T07:22:26;95156.97;;;3.43;78.24
6132;BME280;3097;42.692;23.278;2023-11-19T07:24:52;95129.31;;;3.32;78.34
6132;BME280;3097;42.692;23.278;2023-11-19T07:27:18;95123.78;;;3.29;78.49
6132;BME280;3097;42.692;23.278;2023-11-19T07:29:44;95198.25;;;3.99;77.15
6132;BME280;3097;42.692;23.278;2023-11-19T07:32:10;95203.94;;;4.09;77.54
6132;BME280;3097;42.692;23.278;2023-11-19T07:34:36;95202.69;;;4.05;76.89
6132;BME280;3097;42.692;23.278;2023-11-19T07:37:01;95223.03;;;4.13;77.18
6132;BME280;3097;42.692;23.278;2023-11-19T07:39:31;95086.13;;;3.39;75.95
6132;BME280;3097;42.692;23.278;2023-11-19T07:41:57;95215.56;;;4.12;76.40
6132;BME280;3097;42.692;23.278;2023-11-19T07:44:22;95221.56;;;4.19;76.66
6132;BME280;3097;42.692;23.278;2023-11-19T07:46:48;95221.66;;;4.25;76.86
6132;BME280;3097;42.692;23.278;2023-11-19T07:49:13;95216.63;;;4.17;74.68
6132;BME280;3097;42.692;23.278;2023-11-19T07:51:39;95233.13;;;4.07;76.40
6132;BME280;3097;42.692;23.278;2023-11-19T07:54:05;95233.13;;;4.07;75.78
6132;BME280;3097;42.692;23.278;2023-11-19T07:56:33;95233.97;;;3.99;76.48
6132;BME280;3097;42.692;23.278;2023-11-19T07:58:59;95225.91;;;4.10;76.64
6132;BME280;3097;42.692;23.278;2023-11-19T08:01:25;95218.28;;;4.10;76.69
6132;BME280;3097;42.692;23.278;2023-11-19T08:03:50;95177.06;;;3.99;75.73
6132;BME280;3097;42.692;23.278;2023-11-19T08:06:16;95243.84;;;4.40;75.14
6132;BME280;3097;42.692;23.278;2023-11-19T08:08:41;95236.91;;;4.48;77.36
6132;BME280;3097;42.692;23.278;2023-11-19T08:11:08;95239.88;;;4.52;75.49
6132;BME280;3097;42.692;23.278;2023-11-19T08:13:33;95238.41;;;4.43;74.42
6132;BME280;3097;42.692;23.278;2023-11-19T08:15:59;95256.66;;;4.32;74.71
6132;BME280;3097;42.692;23.278;2023-11-19T08:18:25;95255.84;;;4.16;75.27
6132;BME280;3097;42.692;23.278;2023-11-19T08:20:50;95247.47;;;4.08;75.68
6132;BME280;3097;42.692;23.278;2023-11-19T08:23:19;95246.91;;;4.20;76.00
6132;BME280;3097;42.692;23.278;2023-11-19T08:25:45;95254.09;;;4.17;75.72
6132;BME280;3097;42.692;23.278;2023-11-19T08:28:10;95265.72;;;4.19;76.41
6132;BME280;3097;42.692;23.278;2023-11-19T08:30:36;95253.97;;;4.48;83.94
6132;BME280;3097;42.692;23.278;2023-11-19T08:33:01;95248.34;;;4.52;75.98
6132;BME280;3097;42.692;23.278;2023-11-19T08:35:31;95249.03;;;4.46;74.58
6132;BME280;3097;42.692;23.278;2023-11-19T08:37:58;95249.47;;;4.35;75.07
6132;BME280;3097;42.692;23.278;2023-11-19T08:40:24;95283.19;;;4.45;75.01
6132;BME280;3097;42.692;23.278;2023-11-19T08:42:51;95226.81;;;4.17;74.46
6132;BME280;3097;42.692;23.278;2023-11-19T08:45:16;95254.66;;;4.27;74.65
6132;BME280;3097;42.692;23.278;2023-11-19T08:47:42;95253.78;;;4.35;75.32
6132;BME280;3097;42.692;23.278;2023-11-19T08:50:07;95207.97;;;4.04;74.93
6132;BME280;3097;42.692;23.278;2023-11-19T08:52:33;95258.53;;;4.52;74.66
6132;BME280;3097;42.692;23.278;2023-11-19T08:54:59;95260.53;;;4.65;74.28
6132;BME280;3097;42.692;23.278;2023-11-19T08:57:25;95275.84;;;4.65;73.29
6132;BME280;3097;42.692;23.278;2023-11-19T08:59:50;95263.47;;;4.54;73.41
6132;BME280;3097;42.692;23.278;2023-11-19T09:02:16;95258.19;;;4.41;73.23
6132;BME280;3097;42.692;23.278;2023-11-19T09:04:41;95253.09;;;4.41;73.94
6132;BME280;3097;42.692;23.278;2023-11-19T09:07:07;95254.44;;;4.28;73.56
6132;BME280;3097;42.692;23.278;2023-11-19T09:09:35;95261.50;;;4.26;73.99
6132;BME280;3097;42.692;23.278;2023-11-19T09:12:01;95248.38;;;4.29;74.48
6132;BME280;3097;42.692;23.278;2023-11-19T09:14:26;95242.25;;;4.39;73.93
6132;BME280;3097;42.692;23.278;2023-11-19T09:16:52;95240.06;;;4.36;73.87
6132;BME280;3097;42.692;23.278;2023-11-19T09:19:18;95243.28;;;4.29;74.41
6132;BME280;3097;42.692;23.278;2023-11-19T09:21:43;95234.03;;;4.28;74.62
6132;BME280;3097;42.692;23.278;2023-11-19T09:24:09;95258.19;;;4.41;74.37
6132;BME280;3097;42.692;23.278;2023-11-19T09:26:34;95244.25;;;4.28;73.98
6132;BME280;3097;42.692;23.278;2023-11-19T09:29:01;95273.25;;;4.36;74.15
6132;BME280;3097;42.692;23.278;2023-11-19T09:31:27;95254.38;;;4.37;74.31
6132;BME280;3097;42.692;23.278;2023-11-19T09:33:52;95251.56;;;4.32;74.23
6132;BME280;3097;42.692;23.278;2023-11-19T09:36:18;95234.84;;;4.44;74.51
6132;BME280;3097;42.692;23.278;2023-11-19T09:38:44;95241.38;;;4.46;73.74
6132;BME280;3097;42.692;23.278;2023-11-19T09:41:10;95230.72;;;4.28;74.16
6132;BME280;3097;42.692;23.278;2023-11-19T09:43:37;95225.00;;;4.41;73.61
6132;BME280;3097;42.692;23.278;2023-11-19T09:46:06;95226.69;;;4.34;73.18
6132;BME280;3097;42.692;23.278;2023-11-19T09:48:36;95199.13;;;4.29;73.52
6132;BME280;3097;42.692;23.278;2023-11-19T09:51:06;95179.50;;;4.29;74.12
6132;BME280;3097;42.692;23.278;2023-11-19T09:53:32;95096.06;;;3.86;73.88
6132;BME280;3097;42.692;23.278;2023-11-19T09:56:05;95185.78;;;4.56;73.72
6132;BME280;3097;42.692;23.278;2023-11-19T09:58:31;95186.56;;;4.57;73.51
6132;BME280;3097;42.692;23.278;2023-11-19T10:00:58;95157.00;;;4.48;74.29
6132;BME280;3097;42.692;23.278;2023-11-19T10:03:32;95191.28;;;4.89;73.38
6132;BME280;3097;42.692;23.278;2023-11-19T10:06:00;95180.72;;;4.92;73.61
6132;BME280;3097;42.692;23.278;2023-11-19T10:08:26;95183.09;;;4.94;73.32
6132;BME280;3097;42.692;23.278;2023-11-19T10:10:51;95181.59;;;4.99;73.28
6132;BME280;3097;42.692;23.278;2023-11-19T10:13:17;95184.28;;;5.13;71.86
6132;BME280;3097;42.692;23.278;2023-11-19T10:15:43;95168.59;;;5.16;70.93
6132;BME280;3097;42.692;23.278;2023-11-19T10:18:09;95196.38;;;5.19;70.91
6132;BME280;3097;42.692;23.278;2023-11-19T10:20:36;95142.50;;;4.84;71.42
6132;BME280;3097;42.692;23.278;2023-11-19T10:23:05;95200.47;;;5.20;71.73
6132;BME280;3097;42.692;23.278;2023-11-19T10:25:32;95202.44;;;5.18;71.33
6132;BME280;3097;42.692;23.278;2023-11-19T10:27:59;95170.41;;;5.00;72.77
6132;BME280;3097;42.692;23.278;2023-11-19T10:30:26;95183.78;;;5.02;72.68
6132;BME280;3097;42.692;23.278;2023-11-19T10:35:35;95170.09;;;5.25;71.35
6132;BME280;3097;42.692;23.278;2023-11-19T10:38:13;95159.06;;;5.24;72.00
6132;BME280;3097;42.692;23.278;2023-11-19T10:40:39;95169.88;;;5.41;71.65
6132;BME280;3097;42.692;23.278;2023-11-19T10:43:05;95188.34;;;5.43;71.17
6132;BME280;3097;42.692;23.278;2023-11-19T10:45:33;95186.00;;;5.27;74.78
6132;BME280;3097;42.692;23.278;2023-11-19T10:47:59;95177.16;;;5.65;78.29
6132;BME280;3097;42.692;23.278;2023-11-19T10:50:26;95188.50;;;5.56;70.69
6132;BME280;3097;42.692;23.278;2023-11-19T10:52:57;95173.38;;;5.40;71.40
6132;BME280;3097;42.692;23.278;2023-11-19T10:55:33;95174.34;;;5.60;72.69
6132;BME280;3097;42.692;23.278;2023-11-19T10:58:07;95168.69;;;5.65;70.44
6132;BME280;3097;42.692;23.278;2023-11-19T11:00:44;95164.13;;;5.81;75.59
6132;BME280;3097;42.692;23.278;2023-11-19T11:03:18;95167.91;;;6.07;71.39
6132;BME280;3097;42.692;23.278;2023-11-19T11:05:48;95127.47;;;5.74;70.09
6132;BME280;3097;42.692;23.278;2023-11-19T11:08:14;95118.16;;;5.67;69.79
6132;BME280;3097;42.692;23.278;2023-11-19T11:10:43;95133.66;;;5.87;69.25
6132;BME280;3097;42.692;23.278;2023-11-19T11:13:10;95138.31;;;5.76;70.38
6132;BME280;3097;42.692;23.278;2023-11-19T11:15:37;95131.44;;;5.77;69.35
6132;BME280;3097;42.692;23.278;2023-11-19T11:18:05;95122.78;;;5.57;69.76
6132;BME280;3097;42.692;23.278;2023-11-19T11:20:33;95110.50;;;5.45;69.81
6132;BME280;3097;42.692;23.278;2023-11-19T11:28:37;95134.97;;;5.55;70.58
6132;BME280;3097;42.692;23.278;2023-11-19T11:36:31;95021.88;;;5.25;68.66
6132;BME280;3097;42.692;23.278;2023-11-19T11:38:58;95120.38;;;5.98;69.14
6132;BME280;3097;42.692;23.278;2023-11-19T11:41:25;95111.78;;;6.05;68.86
6132;BME280;3097;42.692;23.278;2023-11-19T11:43:52;95106.47;;;6.07;68.55
6132;BME280;3097;42.692;23.278;2023-11-19T11:49:08;95105.19;;;5.90;72.02
6132;BME280;3097;42.692;23.278;2023-11-19T11:54:30;95098.72;;;5.72;70.78
6132;BME280;3097;42.692;23.278;2023-11-19T11:57:02;95106.22;;;5.74;69.79
6132;BME280;3097;42.692;23.278;2023-11-19T12:02:10;95103.59;;;5.89;69.31
6132;BME280;3097;42.692;23.278;2023-11-19T12:04:36;95100.72;;;5.98;68.53
6132;BME280;3097;42.692;23.278;2023-11-19T12:07:05;95079.81;;;5.95;67.98
6132;BME280;3097;42.692;23.278;2023-11-19T12:09:32;95088.94;;;6.04;68.25
6132;BME280;3097;42.692;23.278;2023-11-19T12:20:02;95059.44;;;6.08;67.91
6132;BME280;3097;42.692;23.278;2023-11-19T12:22:30;95074.03;;;6.14;67.78
6132;BME280;3097;42.692;23.278;2023-11-19T12:24:56;95072.50;;;6.19;73.66
6132;BME280;3097;42.692;23.278;2023-11-19T12:27:21;95060.94;;;6.30;68.07
6132;BME280;3097;42.692;23.278;2023-11-19T12:29:48;95065.25;;;6.23;67.98
6132;BME280;3097;42.692;23.278;2023-11-19T12:32:14;95029.25;;;5.97;68.98
6132;BME280;3097;42.692;23.278;2023-11-19T12:34:39;95072.94;;;6.30;69.14
6132;BME280;3097;42.692;23.278;2023-11-19T12:37:05;95063.88;;;6.27;69.04
6132;BME280;3097;42.692;23.278;2023-11-19T12:39:31;95064.81;;;6.19;69.56
6132;BME280;3097;42.692;23.278;2023-11-19T12:41:57;95048.03;;;6.10;69.74
6132;BME280;3097;42.692;23.278;2023-11-19T12:44:27;95015.31;;;5.99;69.58
6132;BME280;3097;42.692;23.278;2023-11-19T12:47:02;95055.16;;;6.15;69.47
6132;BME280;3097;42.692;23.278;2023-11-19T12:49:28;95043.66;;;6.04;69.97
6132;BME280;3097;42.692;23.278;2023-11-19T12:51:53;95038.16;;;6.01;70.51
6132;BME280;3097;42.692;23.278;2023-11-19T12:54:19;95049.25;;;6.14;69.65
6132;BME280;3097;42.692;23.278;2023-11-19T12:56:53;95052.34;;;6.10;69.48
6132;BME280;3097;42.692;23.278;2023-11-19T12:59:19;95041.91;;;6.05;70.02
6132;BME280;3097;42.692;23.278;2023-11-19T13:01:55;95032.25;;;6.00;69.94
6132;BME280;3097;42.692;23.278;2023-11-19T13:04:21;95027.16;;;6.07;70.45
6132;BME280;3097;42.692;23.278;2023-11-19T13:06:46;95029.09;;;6.05;70.90
6132;BME280;3097;42.692;23.278;2023-11-19T13:09:25;94984.09;;;5.82;70.02
6132;BME280;3097;42.692;23.278;2023-11-19T13:11:51;95009.56;;;5.91;70.30
6132;BME280;3097;42.692;23.278;2023-11-19T13:14:18;95033.09;;;6.14;69.75
6132;BME280;3097;42.692;23.278;2023-11-19T13:16:44;95034.69;;;6.15;69.77
6132;BME280;3097;42.692;23.278;2023-11-19T13:19:12;95027.97;;;6.14;70.35
6132;BME280;3097;42.692;23.278;2023-11-19T13:21:37;95022.06;;;6.13;70.44
6132;BME280;3097;42.692;23.278;2023-11-19T13:24:05;94994.41;;;5.96;69.56
6132;BME280;3097;42.692;23.278;2023-11-19T13:26:31;95006.72;;;6.13;70.55
6132;BME280;3097;42.692;23.278;2023-11-19T13:28:56;94983.41;;;6.02;70.38
6132;BME280;3097;42.692;23.278;2023-11-19T13:31:22;95013.47;;;6.28;69.86
6132;BME280;3097;42.692;23.278;2023-11-19T13:33:48;95005.81;;;6.41;69.24
6132;BME280;3097;42.692;23.278;2023-11-19T13:36:13;95013.69;;;6.39;69.90
6132;BME280;3097;42.692;23.278;2023-11-19T13:38:39;95015.91;;;6.49;69.37
6132;BME280;3097;42.692;23.278;2023-11-19T13:41:07;95018.06;;;6.45;68.86
6132;BME280;3097;42.692;23.278;2023-11-19T13:43:35;94983.97;;;6.38;69.44
6132;BME280;3097;42.692;23.278;2023-11-19T13:46:01;95013.16;;;6.57;69.48
6132;BME280;3097;42.692;23.278;2023-11-19T13:48:26;95030.75;;;6.67;69.17